Time;durP1;ratioP1;P1;durP2;ratioP2;P2;SDS_P1;SDS_P2;PMS_P1;PMS_P2;Temp;Humidity;BMP_temperature;BMP_pressure;BME280_temperature;BME280_humidity;BME280_pressure;Samples;Min_cycle;Max_cycle;Signal;HPM_P1;HPM_P2
2024/01/02 00:01:24;;;;;;;11.00;1.40;;;5.50;99.90;;;;;;5087851;28;20056;-71
2024/01/02 00:03:49;;;;;;;9.73;1.10;;;5.40;99.90;;;;;;5087913;28;20793;-70
2024/01/02 00:06:15;;;;;;;6.15;1.20;;;5.40;99.90;;;;;;5081419;28;20040;-69
2024/01/02 00:08:42;;;;;;;4.18;1.17;;;5.40;99.90;;;;;;5086884;28;20031;-70
2024/01/02 00:11:09;;;;;;;5.45;1.08;;;5.40;99.90;;;;;;5069359;28;20043;-69
2024/01/02 00:13:34;;;;;;;6.68;1.00;;;5.40;99.90;;;;;;5087347;28;20059;-69
2024/01/02 00:16:00;;;;;;;5.65;1.10;;;5.50;99.90;;;;;;5081413;28;20210;-69
2024/01/02 00:18:25;;;;;;;10.13;1.30;;;5.50;99.90;;;;;;5085966;28;20182;-71
2024/01/02 00:20:51;;;;;;;5.18;0.90;;;5.50;99.90;;;;;;5087263;28;20031;-69
2024/01/02 00:23:17;;;;;;;8.45;1.40;;;5.60;99.90;;;;;;5087490;28;20032;-70
2024/01/02 00:25:43;;;;;;;7.38;1.55;;;5.60;99.90;;;;;;5091052;28;20024;-69
2024/01/02 00:28:10;;;;;;;4.03;0.80;;;5.70;99.90;;;;;;5091350;28;20501;-69
2024/01/02 00:30:35;;;;;;;3.45;0.70;;;5.80;99.90;;;;;;5089800;28;20123;-69
2024/01/02 00:33:04;;;;;;;3.53;0.60;;;5.90;99.90;;;;;;5091431;28;20454;-69
2024/01/02 00:35:30;;;;;;;1.83;0.65;;;5.80;99.90;;;;;;5089990;28;20024;-74
2024/01/02 00:37:55;;;;;;;6.25;0.80;;;5.90;99.90;;;;;;5089921;28;20040;-69
2024/01/02 00:40:21;;;;;;;5.85;0.70;;;5.90;99.90;;;;;;5090849;28;20440;-69
2024/01/02 00:42:46;;;;;;;4.63;0.90;;;6.00;99.90;;;;;;5090798;28;20107;-68
2024/01/02 00:45:12;;;;;;;10.65;0.75;;;6.00;99.90;;;;;;5091441;28;20032;-70
2024/01/02 00:47:38;;;;;;;6.07;0.60;;;6.00;99.90;;;;;;5087959;28;20063;-71
2024/01/02 00:50:04;;;;;;;4.00;0.57;;;6.10;99.90;;;;;;5091602;28;20075;-68
2024/01/02 00:52:30;;;;;;;3.03;0.70;;;6.10;99.90;;;;;;5089149;28;20031;-75
2024/01/02 00:54:55;;;;;;;2.05;0.40;;;6.20;99.90;;;;;;5070901;28;20037;-69
2024/01/02 00:57:21;;;;;;;3.33;0.60;;;6.20;99.90;;;;;;5078733;28;20043;-69
2024/01/02 00:59:47;;;;;;;3.17;0.52;;;6.20;99.90;;;;;;5085423;28;20024;-69
2024/01/02 01:02:12;;;;;;;2.78;0.45;;;6.30;99.90;;;;;;5090053;28;20063;-70
2024/01/02 01:04:45;;;;;;;5.50;0.52;;;6.30;99.90;;;;;;5071562;28;20024;-71
2024/01/02 01:07:11;;;;;;;2.95;0.50;;;6.20;99.90;;;;;;5090605;28;20036;-69
2024/01/02 01:09:38;;;;;;;4.15;0.80;;;6.30;99.90;;;;;;5089297;28;20513;-71
2024/01/02 01:12:05;;;;;;;3.85;0.68;;;6.30;99.90;;;;;;5090228;28;20047;-70
2024/01/02 01:14:31;;;;;;;3.60;0.60;;;6.40;99.90;;;;;;5090672;28;20028;-73
2024/01/02 01:16:57;;;;;;;8.10;0.60;;;6.30;99.90;;;;;;5087310;28;20038;-69
2024/01/02 01:19:23;;;;;;;2.08;0.45;;;6.30;99.90;;;;;;5090780;28;20056;-69
2024/01/02 01:21:49;;;;;;;4.18;0.70;;;6.30;99.90;;;;;;5079997;28;20067;-72
2024/01/02 01:24:14;;;;;;;2.63;0.50;;;6.30;99.90;;;;;;5083700;28;20051;-69
2024/01/02 01:26:40;;;;;;;1.55;0.47;;;6.40;99.90;;;;;;5089118;28;20808;-69
2024/01/02 01:29:05;;;;;;;3.67;0.70;;;6.40;99.90;;;;;;5071938;28;20043;-70
2024/01/02 01:31:31;;;;;;;3.13;0.50;;;6.30;99.90;;;;;;5083527;28;20028;-70
2024/01/02 01:33:57;;;;;;;5.30;0.82;;;6.40;99.90;;;;;;5081514;28;20057;-69
2024/01/02 01:36:22;;;;;;;2.28;0.35;;;6.40;99.90;;;;;;5085829;28;20041;-72
2024/01/02 01:38:48;;;;;;;1.77;0.40;;;6.40;99.90;;;;;;5084489;28;20472;-70
2024/01/02 01:41:14;;;;;;;2.78;0.55;;;6.40;99.90;;;;;;5089998;28;20107;-68
2024/01/02 01:43:39;;;;;;;1.95;0.70;;;6.40;99.90;;;;;;5089044;28;20474;-70
2024/01/02 01:46:06;;;;;;;3.47;0.65;;;6.30;99.90;;;;;;5087360;28;20028;-70
2024/01/02 01:48:33;;;;;;;2.92;0.60;;;6.30;99.90;;;;;;5087614;28;20032;-69
2024/01/02 01:50:59;;;;;;;2.95;0.68;;;6.30;99.90;;;;;;5089198;28;20557;-70
2024/01/02 01:53:25;;;;;;;5.60;0.88;;;6.30;99.90;;;;;;5071242;28;20425;-69
2024/01/02 01:55:51;;;;;;;4.60;0.82;;;6.20;99.90;;;;;;5089431;28;20035;-69
2024/01/02 01:58:17;;;;;;;4.10;0.55;;;6.30;99.90;;;;;;5087713;28;20446;-69
2024/01/02 02:00:43;;;;;;;2.47;0.60;;;6.40;99.90;;;;;;5088556;28;20117;-69
2024/01/02 02:03:10;;;;;;;3.08;0.43;;;6.40;99.90;;;;;;5088650;28;20093;-70
2024/01/02 02:05:36;;;;;;;1.42;0.50;;;6.50;99.90;;;;;;5088944;28;20466;-75
2024/01/02 02:08:02;;;;;;;3.90;0.85;;;6.40;99.90;;;;;;5070471;28;20716;-69
2024/01/02 02:10:29;;;;;;;3.72;0.73;;;6.50;99.90;;;;;;5071733;28;20115;-70
2024/01/02 02:12:56;;;;;;;2.92;0.70;;;6.40;99.90;;;;;;5089060;28;20194;-70
2024/01/02 02:15:22;;;;;;;4.75;0.57;;;6.40;99.90;;;;;;5088678;28;20016;-70
2024/01/02 02:17:47;;;;;;;3.65;0.70;;;6.50;99.90;;;;;;5084127;28;20035;-69
2024/01/02 02:20:13;;;;;;;4.72;0.60;;;6.50;99.90;;;;;;5086161;28;20036;-69
2024/01/02 02:22:49;;;;;;;3.08;0.43;;;6.50;99.90;;;;;;5084486;28;20024;-75
2024/01/02 02:25:15;;;;;;;1.85;0.63;;;6.40;99.90;;;;;;5089406;28;20074;-70
2024/01/02 02:27:41;;;;;;;2.60;0.50;;;6.40;99.90;;;;;;5088484;28;20055;-70
2024/01/02 02:30:07;;;;;;;4.80;0.52;;;6.50;99.90;;;;;;5088443;28;20063;-69
2024/01/02 02:32:33;;;;;;;2.75;0.73;;;6.50;99.90;;;;;;5089224;28;20039;-69
2024/01/02 02:34:58;;;;;;;3.33;0.52;;;6.40;99.90;;;;;;5087803;28;20232;-69
2024/01/02 02:37:24;;;;;;;1.85;0.60;;;6.30;99.90;;;;;;5084880;28;20031;-69
2024/01/02 02:39:50;;;;;;;1.45;0.60;;;6.30;99.90;;;;;;5084510;28;20028;-70
2024/01/02 02:42:15;;;;;;;1.48;0.40;;;6.30;99.90;;;;;;5086463;28;20170;-69
2024/01/02 02:44:42;;;;;;;5.78;0.65;;;6.30;99.90;;;;;;5087873;28;20531;-73
2024/01/02 02:47:09;;;;;;;1.45;0.57;;;6.30;99.90;;;;;;5087549;28;20050;-70
2024/01/02 02:49:36;;;;;;;5.15;0.80;;;6.40;99.90;;;;;;5087236;28;20035;-70
2024/01/02 02:52:02;;;;;;;4.30;0.70;;;6.40;99.90;;;;;;5068866;28;20610;-71
2024/01/02 02:54:28;;;;;;;2.33;0.63;;;6.40;99.90;;;;;;5088670;28;20039;-70
2024/01/02 02:56:53;;;;;;;2.92;0.60;;;6.40;99.90;;;;;;5088321;28;20031;-69
2024/01/02 02:59:19;;;;;;;2.88;0.60;;;6.40;99.90;;;;;;5088621;28;20036;-74
2024/01/02 03:01:45;;;;;;;4.80;0.95;;;6.40;99.90;;;;;;5084546;28;20044;-70
2024/01/02 03:04:10;;;;;;;1.50;0.70;;;6.40;99.90;;;;;;5080054;28;20036;-68
2024/01/02 03:06:36;;;;;;;2.15;0.70;;;6.50;99.90;;;;;;5077249;28;20471;-70
2024/01/02 03:09:03;;;;;;;3.70;0.80;;;6.40;99.90;;;;;;5076542;28;20024;-69
2024/01/02 03:11:29;;;;;;;3.10;0.88;;;6.40;99.90;;;;;;5075746;28;20035;-69
2024/01/02 03:13:55;;;;;;;5.88;0.60;;;6.40;99.90;;;;;;5053972;28;20024;-69
2024/01/02 03:16:20;;;;;;;2.25;0.60;;;6.40;99.90;;;;;;5077652;28;20039;-68
2024/01/02 03:18:46;;;;;;;3.15;0.85;;;6.40;99.90;;;;;;5067874;28;20029;-70
2024/01/02 03:21:12;;;;;;;1.45;0.60;;;6.40;99.90;;;;;;5069270;28;20033;-70
2024/01/02 03:23:37;;;;;;;2.25;0.73;;;6.40;99.90;;;;;;5057963;28;20024;-71
2024/01/02 03:26:04;;;;;;;3.17;0.50;;;6.30;99.90;;;;;;5050615;28;20043;-69
2024/01/02 03:28:31;;;;;;;3.72;0.73;;;6.20;99.90;;;;;;5073906;28;20024;-69
2024/01/02 03:30:57;;;;;;;7.70;0.60;;;6.30;99.90;;;;;;5085719;28;20047;-71
2024/01/02 03:33:23;;;;;;;3.78;0.60;;;6.20;99.90;;;;;;5071886;28;20039;-70
2024/01/02 03:35:48;;;;;;;1.90;0.70;;;6.20;99.90;;;;;;5075945;28;20024;-71
2024/01/02 03:38:15;;;;;;;5.20;0.77;;;6.20;99.90;;;;;;5069540;28;20355;-70
2024/01/02 03:40:40;;;;;;;5.07;0.70;;;6.20;99.90;;;;;;5067503;28;20051;-76
2024/01/02 03:43:06;;;;;;;3.13;0.70;;;6.30;99.90;;;;;;5060579;28;20028;-70
2024/01/02 03:45:32;;;;;;;2.78;0.57;;;6.30;99.90;;;;;;5057538;28;20624;-69
2024/01/02 03:48:00;;;;;;;4.97;1.00;;;6.40;99.90;;;;;;5069845;28;20123;-69
2024/01/02 03:50:25;;;;;;;1.50;0.63;;;6.40;99.90;;;;;;5083968;28;20677;-69
2024/01/02 03:52:51;;;;;;;2.28;0.60;;;6.40;99.90;;;;;;5076005;28;20060;-67
2024/01/02 03:55:16;;;;;;;1.50;0.88;;;6.30;99.90;;;;;;5054500;28;20110;-66
2024/01/02 03:57:43;;;;;;;3.75;1.00;;;6.30;99.90;;;;;;5077847;28;20031;-72
2024/01/02 04:00:09;;;;;;;3.72;0.80;;;6.20;99.90;;;;;;5082238;28;20044;-66
2024/01/02 04:02:35;;;;;;;2.75;0.82;;;6.20;99.90;;;;;;5092600;28;20028;-67
2024/01/02 04:05:01;;;;;;;2.55;1.05;;;6.20;99.90;;;;;;5091414;28;20606;-66
2024/01/02 04:07:27;;;;;;;2.97;0.80;;;6.10;99.90;;;;;;5091664;28;20473;-66
2024/01/02 04:09:52;;;;;;;1.73;0.60;;;6.10;99.90;;;;;;5089382;28;20056;-66
2024/01/02 04:12:18;;;;;;;1.92;0.75;;;6.10;99.90;;;;;;5092147;28;20024;-67
2024/01/02 04:14:44;;;;;;;3.22;0.90;;;6.10;99.90;;;;;;5091167;28;20035;-72
2024/01/02 04:17:09;;;;;;;2.45;0.80;;;6.10;99.90;;;;;;5091700;28;20108;-67
2024/01/02 04:19:35;;;;;;;2.78;1.02;;;5.90;99.90;;;;;;5090955;28;20140;-68
2024/01/02 04:22:00;;;;;;;3.75;0.90;;;5.90;99.90;;;;;;5090977;28;20096;-67
2024/01/02 04:24:26;;;;;;;5.65;0.93;;;5.90;99.90;;;;;;5087246;28;20028;-66
2024/01/02 04:26:53;;;;;;;2.83;1.00;;;5.90;99.90;;;;;;5086109;28;20089;-67
2024/01/02 04:29:18;;;;;;;2.55;0.80;;;5.90;99.90;;;;;;5073386;28;20024;-67
2024/01/02 04:31:44;;;;;;;2.78;0.77;;;5.90;99.90;;;;;;5066739;28;20040;-71
2024/01/02 04:34:10;;;;;;;4.10;1.00;;;5.90;99.90;;;;;;5070656;28;20102;-66
2024/01/02 04:36:36;;;;;;;1.88;0.65;;;5.90;99.90;;;;;;5066702;28;20062;-67
2024/01/02 04:39:03;;;;;;;1.83;0.77;;;5.90;99.90;;;;;;5052547;28;20534;-67
2024/01/02 04:41:28;;;;;;;3.97;1.00;;;6.00;99.90;;;;;;5066158;28;20478;-67
2024/01/02 04:43:54;;;;;;;2.03;0.80;;;6.00;99.90;;;;;;5086185;28;20130;-67
2024/01/02 04:46:20;;;;;;;1.83;0.52;;;6.00;99.90;;;;;;5066694;28;20055;-68
2024/01/02 04:48:45;;;;;;;3.72;0.80;;;6.00;99.90;;;;;;5082315;28;20039;-72
2024/01/02 04:51:11;;;;;;;3.17;1.17;;;6.10;99.90;;;;;;5064171;28;20041;-66
2024/01/02 04:53:36;;;;;;;2.00;0.75;;;6.00;99.90;;;;;;5081053;28;20029;-66
2024/01/02 04:56:02;;;;;;;2.17;0.52;;;6.00;99.90;;;;;;5084293;28;20042;-68
2024/01/02 04:58:28;;;;;;;1.35;0.57;;;6.10;99.90;;;;;;5070908;28;20181;-67
2024/01/02 05:00:53;;;;;;;3.47;0.80;;;6.10;99.90;;;;;;5054878;28;20056;-66
2024/01/02 05:03:19;;;;;;;1.80;0.77;;;6.10;99.90;;;;;;5102797;28;20474;-67
2024/01/02 05:05:45;;;;;;;2.67;0.90;;;6.10;99.90;;;;;;5105516;28;20028;-72
2024/01/02 05:08:10;;;;;;;5.18;0.80;;;6.10;99.90;;;;;;5072436;28;20090;-66
2024/01/02 05:10:36;;;;;;;3.40;0.80;;;6.00;99.90;;;;;;5089692;28;20101;-67
2024/01/02 05:13:02;;;;;;;3.63;0.70;;;6.00;99.90;;;;;;5094785;28;20110;-68
2024/01/02 05:15:28;;;;;;;1.70;0.50;;;6.00;99.90;;;;;;5109365;28;20103;-68
2024/01/02 05:17:54;;;;;;;5.03;0.77;;;6.00;99.90;;;;;;5085132;28;20028;-69
2024/01/02 05:20:19;;;;;;;2.03;0.60;;;5.90;99.90;;;;;;5076644;28;20346;-67
2024/01/02 05:22:45;;;;;;;3.67;0.80;;;6.00;99.90;;;;;;5098582;28;20023;-72
2024/01/02 05:25:11;;;;;;;3.35;0.70;;;5.90;99.90;;;;;;5110947;28;20027;-69
2024/01/02 05:27:36;;;;;;;4.18;0.98;;;5.90;99.90;;;;;;5087608;28;20432;-68
2024/01/02 05:30:02;;;;;;;1.38;0.63;;;5.80;99.90;;;;;;5097836;28;20077;-67
2024/01/02 05:32:29;;;;;;;2.38;0.60;;;5.80;99.90;;;;;;5071300;28;20032;-69
2024/01/02 05:34:54;;;;;;;2.47;0.80;;;5.90;99.90;;;;;;5071350;28;20101;-67
2024/01/02 05:37:20;;;;;;;3.22;1.00;;;5.90;99.90;;;;;;5090098;28;20066;-67
2024/01/02 05:39:46;;;;;;;1.00;0.50;;;5.90;99.90;;;;;;5078415;28;20054;-72
2024/01/02 05:42:11;;;;;;;1.52;0.68;;;5.80;99.90;;;;;;5069491;28;20028;-70
2024/01/02 05:44:37;;;;;;;7.10;0.80;;;5.90;99.90;;;;;;5072437;28;20036;-70
2024/01/02 05:47:03;;;;;;;3.13;0.63;;;5.90;99.90;;;;;;5093017;28;20036;-68
2024/01/02 05:49:29;;;;;;;1.60;0.60;;;5.80;99.90;;;;;;5075297;28;20389;-69
2024/01/02 05:51:56;;;;;;;2.25;0.77;;;5.80;99.90;;;;;;5095247;28;20024;-69
2024/01/02 05:54:22;;;;;;;1.95;0.73;;;5.80;99.90;;;;;;5092817;28;20028;-69
2024/01/02 05:56:47;;;;;;;2.05;0.60;;;5.80;99.90;;;;;;5089231;28;20093;-74
2024/01/02 05:59:13;;;;;;;1.85;0.60;;;5.90;99.90;;;;;;5070634;28;20139;-68
2024/01/02 06:01:39;;;;;;;2.15;0.52;;;5.90;99.90;;;;;;5074114;28;20052;-69
2024/01/02 06:04:04;;;;;;;2.40;0.80;;;5.80;99.90;;;;;;5074751;28;20616;-67
2024/01/02 06:06:30;;;;;;;1.08;0.50;;;5.90;99.90;;;;;;5042314;28;20483;-68
2024/01/02 06:08:55;;;;;;;3.92;0.60;;;5.90;99.90;;;;;;5049522;28;20045;-69
2024/01/02 06:11:21;;;;;;;1.45;0.50;;;6.00;99.90;;;;;;5072525;28;20445;-68
2024/01/02 06:13:47;;;;;;;1.65;0.45;;;5.90;99.90;;;;;;5081757;28;20059;-67
2024/01/02 06:16:12;;;;;;;6.93;1.23;;;5.90;99.90;;;;;;5075783;28;20033;-69
2024/01/02 06:18:38;;;;;;;3.08;0.50;;;6.00;99.90;;;;;;5079339;28;20478;-68
2024/01/02 06:21:04;;;;;;;2.00;0.70;;;6.00;99.90;;;;;;5050072;28;20029;-69
2024/01/02 06:23:33;;;;;;;2.70;0.50;;;6.10;99.90;;;;;;5079600;28;20024;-66
2024/01/02 06:26:00;;;;;;;0.95;0.45;;;6.00;99.90;;;;;;5066857;28;20033;-67
2024/01/02 06:28:25;;;;;;;1.77;0.30;;;6.00;99.90;;;;;;5050963;28;20434;-66
2024/01/02 06:30:51;;;;;;;0.63;0.20;;;6.10;99.90;;;;;;5054473;28;20036;-71
2024/01/02 06:33:17;;;;;;;3.05;0.57;;;6.10;99.90;;;;;;5080133;28;20050;-66
2024/01/02 06:35:42;;;;;;;1.27;0.60;;;6.20;99.90;;;;;;5083927;28;20103;-67
2024/01/02 06:38:11;;;;;;;3.17;0.55;;;6.20;99.90;;;;;;5063402;28;20043;-65
2024/01/02 06:40:37;;;;;;;1.50;0.50;;;6.10;99.90;;;;;;5057966;28;20040;-66
2024/01/02 06:43:04;;;;;;;0.60;0.35;;;6.20;99.90;;;;;;5068648;28;20036;-67
2024/01/02 06:45:30;;;;;;;0.93;0.35;;;6.20;99.90;;;;;;5068656;28;20055;-66
2024/01/02 06:47:56;;;;;;;2.88;0.30;;;6.10;99.90;;;;;;5059927;28;20052;-67
2024/01/02 06:50:22;;;;;;;4.75;0.50;;;6.10;99.90;;;;;;5048735;28;20735;-72
2024/01/02 06:52:47;;;;;;;1.00;0.68;;;6.10;99.90;;;;;;5062337;28;20032;-67
2024/01/02 06:55:13;;;;;;;2.22;0.40;;;6.10;99.90;;;;;;5069711;28;20024;-66
2024/01/02 06:57:39;;;;;;;1.25;0.43;;;6.10;99.90;;;;;;5050048;28;20032;-67
2024/01/02 07:00:06;;;;;;;1.88;0.50;;;6.10;99.90;;;;;;5048362;28;20088;-67
2024/01/02 07:02:32;;;;;;;1.75;0.40;;;6.10;99.90;;;;;;5089389;28;20059;-67
2024/01/02 07:04:58;;;;;;;1.00;0.40;;;6.10;99.90;;;;;;5068932;28;20062;-69
2024/01/02 07:07:24;;;;;;;2.00;0.63;;;6.20;99.90;;;;;;5082103;28;20028;-66
2024/01/02 07:09:50;;;;;;;1.38;0.40;;;6.20;99.90;;;;;;5087297;28;20452;-67
2024/01/02 07:12:15;;;;;;;1.35;0.50;;;6.20;99.90;;;;;;5099249;28;20441;-65
2024/01/02 07:14:41;;;;;;;1.50;0.32;;;6.20;99.90;;;;;;5104355;28;20023;-68
2024/01/02 07:17:07;;;;;;;1.02;0.40;;;6.20;99.90;;;;;;5072173;28;20040;-65
2024/01/02 07:19:33;;;;;;;1.42;0.50;;;6.30;99.90;;;;;;5086627;28;20032;-66
2024/01/02 07:21:59;;;;;;;0.60;0.30;;;6.40;99.90;;;;;;5091927;28;20083;-65
2024/01/02 07:24:25;;;;;;;4.85;0.60;;;6.40;99.90;;;;;;5064606;28;20024;-66
2024/01/02 07:26:50;;;;;;;1.30;0.40;;;6.40;99.90;;;;;;5077980;28;20170;-66
2024/01/02 07:29:16;;;;;;;0.65;0.40;;;6.40;99.90;;;;;;5067518;28;20029;-68
2024/01/02 07:31:42;;;;;;;1.75;0.35;;;6.40;99.90;;;;;;5075845;28;20083;-67
2024/01/02 07:34:07;;;;;;;1.38;0.38;;;6.40;99.90;;;;;;5072070;28;20039;-65
2024/01/02 07:36:33;;;;;;;1.38;0.47;;;6.40;99.90;;;;;;5098175;28;20028;-64
2024/01/02 07:38:59;;;;;;;0.40;0.20;;;6.30;99.90;;;;;;5086568;28;20074;-68
2024/01/02 07:41:24;;;;;;;1.42;0.40;;;6.40;99.90;;;;;;5087368;28;20719;-67
2024/01/02 07:43:50;;;;;;;0.98;0.35;;;6.40;99.90;;;;;;5094371;28;20074;-69
2024/01/02 07:46:18;;;;;;;2.25;0.30;;;6.40;99.90;;;;;;5091452;28;20028;-65
2024/01/02 07:48:45;;;;;;;0.50;0.30;;;6.50;99.90;;;;;;5078885;28;20607;-68
2024/01/02 07:51:10;;;;;;;1.55;0.32;;;6.50;99.90;;;;;;5095325;28;20074;-65
2024/01/02 07:53:36;;;;;;;1.90;0.20;;;6.50;99.90;;;;;;5096964;28;20478;-68
2024/01/02 07:56:05;;;;;;;1.20;0.30;;;6.50;99.90;;;;;;5087386;28;20040;-65
2024/01/02 07:58:31;;;;;;;0.63;0.30;;;6.50;99.90;;;;;;5087542;28;20113;-66
2024/01/02 08:00:56;;;;;;;0.80;0.30;;;6.60;99.90;;;;;;5085788;28;20087;-71
2024/01/02 08:03:22;;;;;;;1.08;0.40;;;6.60;99.90;;;;;;5076956;28;20421;-69
2024/01/02 08:05:47;;;;;;;0.55;0.35;;;6.60;99.90;;;;;;5085128;28;20024;-67
2024/01/02 08:08:13;;;;;;;3.97;0.40;;;6.60;99.90;;;;;;5087754;28;20043;-66
2024/01/02 08:10:39;;;;;;;1.35;0.30;;;6.60;99.90;;;;;;5084491;28;20032;-66
2024/01/02 08:13:04;;;;;;;0.68;0.32;;;6.60;99.90;;;;;;5091647;28;20091;-68
2024/01/02 08:15:33;;;;;;;2.50;0.30;;;6.60;99.90;;;;;;5091409;28;20031;-68
2024/01/02 08:17:58;;;;;;;1.20;0.47;;;6.60;99.90;;;;;;5082686;28;20060;-72
2024/01/02 08:20:24;;;;;;;1.10;0.60;;;6.60;99.90;;;;;;5081876;28;20067;-67
2024/01/02 08:22:49;;;;;;;1.23;0.30;;;6.60;99.90;;;;;;5090147;28;20028;-67
2024/01/02 08:25:15;;;;;;;1.17;0.30;;;6.60;99.90;;;;;;5078791;28;20145;-66
2024/01/02 08:27:41;;;;;;;1.42;0.50;;;6.70;99.90;;;;;;5088866;28;20113;-66
2024/01/02 08:30:07;;;;;;;1.13;0.43;;;6.70;99.90;;;;;;5097824;28;20093;-68
2024/01/02 08:32:33;;;;;;;0.88;0.60;;;6.70;99.90;;;;;;5092641;28;20032;-67
2024/01/02 08:34:59;;;;;;;0.80;0.20;;;6.70;99.90;;;;;;5087461;28;20378;-72
2024/01/02 08:37:25;;;;;;;1.73;0.43;;;6.70;99.90;;;;;;5099722;28;20016;-65
2024/01/02 08:39:50;;;;;;;1.38;0.40;;;6.70;99.90;;;;;;5095964;28;20069;-69
2024/01/02 08:42:16;;;;;;;1.08;0.30;;;6.60;99.90;;;;;;5088718;28;20639;-69
2024/01/02 08:44:42;;;;;;;2.05;0.43;;;6.60;99.90;;;;;;5098752;28;20116;-69
2024/01/02 08:47:08;;;;;;;1.35;0.35;;;6.60;99.90;;;;;;5070216;28;20035;-69
2024/01/02 08:49:33;;;;;;;1.58;0.40;;;6.60;99.90;;;;;;5071624;28;20040;-69
2024/01/02 08:51:59;;;;;;;0.80;0.40;;;6.70;99.90;;;;;;5066868;28;20057;-74
2024/01/02 08:54:25;;;;;;;1.13;0.50;;;6.70;99.90;;;;;;5099903;28;20108;-69
2024/01/02 08:56:50;;;;;;;1.25;0.60;;;6.80;99.90;;;;;;5089094;28;20049;-68
2024/01/02 08:59:16;;;;;;;1.40;0.30;;;6.70;99.90;;;;;;5108427;28;20863;-69
2024/01/02 09:01:41;;;;;;;3.28;0.47;;;6.70;99.90;;;;;;5098272;28;20056;-69
2024/01/02 09:04:07;;;;;;;1.42;0.40;;;6.70;99.90;;;;;;5090977;28;20496;-69
2024/01/02 09:06:33;;;;;;;1.17;0.32;;;6.70;99.90;;;;;;5090782;28;20024;-69
2024/01/02 09:08:58;;;;;;;2.50;0.40;;;6.70;99.90;;;;;;5091331;28;20914;-73
2024/01/02 09:11:24;;;;;;;0.93;0.45;;;6.70;99.90;;;;;;5098158;28;20036;-69
2024/01/02 09:13:50;;;;;;;2.13;0.50;;;6.70;99.90;;;;;;5106771;28;20462;-70
2024/01/02 09:16:17;;;;;;;1.38;0.38;;;6.70;99.90;;;;;;5090908;28;20111;-69
2024/01/02 09:18:43;;;;;;;0.93;0.40;;;6.80;99.90;;;;;;5091021;28;20181;-69
2024/01/02 09:21:08;;;;;;;0.80;0.47;;;6.80;99.90;;;;;;5090585;28;20707;-69
2024/01/02 09:23:34;;;;;;;0.95;0.35;;;6.80;99.90;;;;;;5090780;28;20028;-71
2024/01/02 09:26:04;;;;;;;2.88;0.55;;;6.80;99.90;;;;;;5090903;28;20032;-74
2024/01/02 09:28:30;;;;;;;1.43;0.60;;;6.80;99.90;;;;;;5091229;28;20028;-69
2024/01/02 09:30:56;;;;;;;1.75;0.68;;;6.80;99.90;;;;;;5101653;28;20055;-69
2024/01/02 09:33:25;;;;;;;1.67;0.40;;;6.80;99.90;;;;;;5071962;28;20666;-69
2024/01/02 09:35:50;;;;;;;1.35;0.52;;;6.90;99.90;;;;;;5070680;28;20029;-69
2024/01/02 09:38:16;;;;;;;1.52;0.40;;;6.80;99.90;;;;;;5069812;28;20047;-69
2024/01/02 09:40:53;;;;;;;1.23;0.47;;;6.80;99.90;;;;;;5083122;28;20546;-70
2024/01/02 09:43:26;;;;;;;1.33;0.68;;;6.90;99.90;;;;;;5110566;28;20030;-69
2024/01/02 09:46:11;;;;;;;2.92;0.60;;;6.90;99.90;;;;;;5052618;28;20067;-70
2024/01/02 09:48:51;;;;;;;2.72;0.63;;;6.90;99.90;;;;;;5052678;28;20056;-69
2024/01/02 09:51:28;;;;;;;2.33;0.50;;;7.00;99.90;;;;;;5089470;28;20031;-69
2024/01/02 09:54:27;;;;;;;2.45;0.60;;;7.00;99.90;;;;;;5104135;28;20166;-68
2024/01/02 09:57:01;;;;;;;1.92;0.60;;;7.00;99.90;;;;;;5081981;28;20141;-69
2024/01/02 09:59:33;;;;;;;0.85;0.40;;;7.10;99.90;;;;;;5106684;28;20035;-69
2024/01/02 10:02:22;;;;;;;1.65;0.70;;;7.10;99.90;;;;;;5073234;28;20087;-70
2024/01/02 10:05:09;;;;;;;1.50;0.60;;;7.10;99.90;;;;;;5048777;28;20036;-71
2024/01/02 10:07:44;;;;;;;1.33;0.50;;;7.20;99.90;;;;;;5105193;28;20031;-70
2024/01/02 10:10:25;;;;;;;1.15;0.50;;;7.20;99.90;;;;;;5069638;28;20039;-70
2024/01/02 10:13:19;;;;;;;2.13;0.50;;;7.30;99.90;;;;;;5094061;28;20035;-69
2024/01/02 10:15:54;;;;;;;2.25;0.60;;;7.30;99.90;;;;;;5110959;28;20038;-69
2024/01/02 10:18:47;;;;;;;1.88;0.50;;;7.30;99.90;;;;;;5109844;28;20026;-71
2024/01/02 10:22:00;;;;;;;1.58;0.60;;;7.30;99.90;;;;;;5101246;28;20058;-71
2024/01/02 10:24:44;;;;;;;1.42;0.50;;;7.50;99.90;;;;;;5081189;28;20067;-69
2024/01/02 10:27:21;;;;;;;6.72;0.50;;;7.50;99.90;;;;;;5091420;28;20036;-68
2024/01/02 10:30:06;;;;;;;1.05;0.40;;;7.50;99.90;;;;;;5110539;28;20032;-68
2024/01/02 10:32:54;;;;;;;1.08;0.40;;;7.60;99.90;;;;;;5091284;28;20516;-69
2024/01/02 10:35:29;;;;;;;1.50;0.45;;;7.60;99.90;;;;;;5070961;28;20500;-70
2024/01/02 10:38:22;;;;;;;4.18;0.40;;;7.60;99.90;;;;;;5100479;28;20482;-69
2024/01/02 10:41:16;;;;;;;0.90;0.40;;;7.60;99.90;;;;;;5089956;28;20600;-68
2024/01/02 10:43:58;;;;;;;1.20;0.45;;;7.60;99.90;;;;;;5078950;28;20031;-69
2024/01/02 10:46:54;;;;;;;1.00;0.35;;;7.60;99.90;;;;;;5070709;28;20647;-71
2024/01/02 10:49:41;;;;;;;0.98;0.30;;;7.70;99.90;;;;;;5088910;28;20028;-72
2024/01/02 10:52:31;;;;;;;0.65;0.22;;;7.70;99.90;;;;;;5089363;28;20063;-73
2024/01/02 10:55:10;;;;;;;1.60;0.40;;;7.80;99.90;;;;;;5069377;28;20040;-69
2024/01/02 10:57:45;;;;;;;0.50;0.20;;;7.80;99.90;;;;;;5069033;28;20041;-70
2024/01/02 11:00:20;;;;;;;0.80;0.30;;;7.80;99.90;;;;;;5050124;28;20033;-70
2024/01/02 11:02:58;;;;;;;0.35;0.20;;;7.90;99.90;;;;;;5107920;28;20434;-69
2024/01/02 11:05:30;;;;;;;1.85;0.30;;;7.90;99.90;;;;;;5101652;28;20048;-69
2024/01/02 11:08:16;;;;;;;3.13;0.52;;;7.90;99.90;;;;;;5088663;28;20028;-69
2024/01/02 11:10:53;;;;;;;1.00;0.30;;;8.00;99.90;;;;;;5088643;28;20037;-69
2024/01/02 11:13:19;;;;;;;0.60;0.30;;;8.00;99.90;;;;;;5088559;28;20032;-70
2024/01/02 11:15:51;;;;;;;3.58;0.30;;;8.10;99.90;;;;;;5089115;28;20028;-69
2024/01/02 11:18:18;;;;;;;0.95;0.30;;;8.10;99.90;;;;;;5069950;28;20036;-71
2024/01/02 11:21:01;;;;;;;0.52;0.20;;;8.20;99.90;;;;;;5089565;28;20020;-69
2024/01/02 11:23:32;;;;;;;0.40;0.20;;;8.20;99.90;;;;;;5108648;28;20058;-69
2024/01/02 11:26:14;;;;;;;0.73;0.20;;;8.30;99.90;;;;;;5090834;28;20453;-69
2024/01/02 11:28:42;;;;;;;4.55;0.20;;;8.30;99.90;;;;;;5109575;28;20100;-69
2024/01/02 11:31:12;;;;;;;0.80;0.20;;;8.30;99.90;;;;;;5103766;28;20167;-73
2024/01/02 11:33:48;;;;;;;4.75;0.30;;;8.30;99.90;;;;;;5088938;28;20077;-71
2024/01/02 11:36:27;;;;;;;0.50;0.20;;;8.40;99.90;;;;;;5095657;28;20501;-69
2024/01/02 11:39:09;;;;;;;0.70;0.20;;;8.40;99.90;;;;;;5108929;28;20035;-68
2024/01/02 11:41:35;;;;;;;0.70;0.20;;;8.40;99.90;;;;;;5100287;28;20153;-69
2024/01/02 11:44:14;;;;;;;0.73;0.20;;;8.50;99.90;;;;;;5088633;28;20107;-69
2024/01/02 11:46:43;;;;;;;1.65;0.20;;;8.50;99.90;;;;;;5089211;28;20039;-69
2024/01/02 11:49:17;;;;;;;0.63;0.20;;;8.50;99.90;;;;;;5088056;28;20175;-73
2024/01/02 11:51:56;;;;;;;2.65;0.30;;;8.50;99.90;;;;;;5102513;28;20116;-69
2024/01/02 11:54:29;;;;;;;1.73;0.20;;;8.60;99.90;;;;;;5108185;28;20603;-71
2024/01/02 11:56:55;;;;;;;0.82;0.20;;;8.60;99.90;;;;;;5109187;28;20116;-70
2024/01/02 11:59:30;;;;;;;1.00;0.20;;;8.70;99.90;;;;;;5108321;28;20043;-69
2024/01/02 12:02:19;;;;;;;1.27;0.20;;;8.70;99.90;;;;;;5093441;28;20055;-69
2024/01/02 12:05:09;;;;;;;0.70;0.20;;;8.70;99.90;;;;;;5070494;28;20467;-69
2024/01/02 12:07:38;;;;;;;0.60;0.28;;;8.80;99.90;;;;;;5069936;28;20767;-69
2024/01/02 12:10:05;;;;;;;5.18;0.20;;;8.70;99.90;;;;;;5088430;28;20032;-71
2024/01/02 12:13:06;;;;;;;1.65;0.20;;;8.70;99.90;;;;;;5068807;28;20082;-69
2024/01/02 12:15:55;;;;;;;0.43;0.17;;;8.80;99.90;;;;;;5087630;28;20024;-69
2024/01/02 12:18:22;;;;;;;0.65;0.20;;;8.80;99.90;;;;;;5088477;28;20044;-69
2024/01/02 12:20:48;;;;;;;0.65;0.13;;;8.80;99.90;;;;;;5091443;28;20031;-69
2024/01/02 12:23:14;;;;;;;0.20;0.10;;;8.80;99.90;;;;;;5091630;28;20493;-72
2024/01/02 12:25:46;;;;;;;0.57;0.20;;;8.90;99.90;;;;;;5092428;28;20032;-69
2024/01/02 12:28:12;;;;;;;0.93;0.13;;;8.90;99.90;;;;;;5091761;28;20038;-73
2024/01/02 12:30:40;;;;;;;1.90;0.10;;;8.90;99.90;;;;;;5091425;28;20036;-70
2024/01/02 12:33:21;;;;;;;0.30;0.10;;;8.90;99.90;;;;;;5092517;28;20064;-69
2024/01/02 12:36:01;;;;;;;0.45;0.00;;;8.90;99.90;;;;;;5084874;28;20029;-68
2024/01/02 12:38:46;;;;;;;0.77;0.17;;;8.90;99.90;;;;;;5071055;28;20036;-68
2024/01/02 12:41:17;;;;;;;1.08;0.22;;;8.90;99.90;;;;;;5079315;28;20044;-72
2024/01/02 12:43:45;;;;;;;2.45;0.10;;;8.80;99.90;;;;;;5092089;28;20484;-69
2024/01/02 12:46:14;;;;;;;1.85;0.20;;;8.90;99.90;;;;;;5091539;28;20881;-73
2024/01/02 12:49:09;;;;;;;0.45;0.10;;;8.80;99.90;;;;;;5091810;28;20032;-69
2024/01/02 12:51:37;;;;;;;0.45;0.20;;;8.80;99.90;;;;;;5086159;28;20103;-69
2024/01/02 12:54:04;;;;;;;0.50;0.10;;;8.90;99.90;;;;;;5091282;28;20032;-69
2024/01/02 12:56:34;;;;;;;0.57;0.10;;;9.00;99.90;;;;;;5090744;28;20020;-70
2024/01/02 12:59:06;;;;;;;0.80;0.23;;;8.90;99.90;;;;;;5091557;28;20565;-69
2024/01/02 13:01:32;;;;;;;0.82;0.28;;;8.80;99.90;;;;;;5080693;28;20049;-70
2024/01/02 13:03:59;;;;;;;0.40;0.20;;;8.80;99.90;;;;;;5071293;28;20110;-69
2024/01/02 13:06:26;;;;;;;0.50;0.17;;;8.80;99.90;;;;;;5070571;28;20111;-69